sensor_id;sensor_type;location;lat;lon;timestamp;P1;durP1;ratioP1;P2;durP2;ratioP2
57225;SDS011;43082;43.568;22.256;2023-04-03T00:00:45;18.63;;;10.40;;
57225;SDS011;43082;43.568;22.256;2023-04-03T00:03:10;13.75;;;9.00;;
57225;SDS011;43082;43.568;22.256;2023-04-03T00:05:35;15.02;;;9.05;;
57225;SDS011;43082;43.568;22.256;2023-04-03T00:08:01;12.95;;;8.23;;
57225;SDS011;43082;43.568;22.256;2023-04-03T00:10:32;16.52;;;11.07;;
57225;SDS011;43082;43.568;22.256;2023-04-03T00:12:58;16.88;;;11.43;;
57225;SDS011;43082;43.568;22.256;2023-04-03T00:15:23;21.15;;;13.35;;
57225;SDS011;43082;43.568;22.256;2023-04-03T00:17:48;12.00;;;7.47;;
57225;SDS011;43082;43.568;22.256;2023-04-03T00:20:14;18.02;;;11.07;;
57225;SDS011;43082;43.568;22.256;2023-04-03T00:22:39;14.90;;;8.77;;
57225;SDS011;43082;43.568;22.256;2023-04-03T00:25:05;16.88;;;11.05;;
57225;SDS011;43082;43.568;22.256;2023-04-03T00:27:30;14.45;;;7.90;;
57225;SDS011;43082;43.568;22.256;2023-04-03T00:29:56;13.27;;;7.50;;
57225;SDS011;43082;43.568;22.256;2023-04-03T00:32:21;14.88;;;7.63;;
57225;SDS011;43082;43.568;22.256;2023-04-03T00:34:47;14.63;;;8.45;;
57225;SDS011;43082;43.568;22.256;2023-04-03T00:37:12;16.38;;;9.13;;
57225;SDS011;43082;43.568;22.256;2023-04-03T00:39:37;15.30;;;9.82;;
57225;SDS011;43082;43.568;22.256;2023-04-03T00:42:03;14.90;;;9.10;;
57225;SDS011;43082;43.568;22.256;2023-04-03T00:47:00;12.98;;;8.30;;
57225;SDS011;43082;43.568;22.256;2023-04-03T00:49:26;13.27;;;8.05;;
57225;SDS011;43082;43.568;22.256;2023-04-03T00:51:52;11.75;;;6.95;;
57225;SDS011;43082;43.568;22.256;2023-04-03T00:54:17;11.60;;;6.53;;
57225;SDS011;43082;43.568;22.256;2023-04-03T00:56:43;13.88;;;6.50;;
57225;SDS011;43082;43.568;22.256;2023-04-03T00:59:10;12.02;;;6.90;;
57225;SDS011;43082;43.568;22.256;2023-04-03T01:01:37;10.52;;;6.10;;
57225;SDS011;43082;43.568;22.256;2023-04-03T01:04:03;11.70;;;6.05;;
57225;SDS011;43082;43.568;22.256;2023-04-03T01:06:32;9.05;;;5.75;;
57225;SDS011;43082;43.568;22.256;2023-04-03T01:08:59;9.27;;;4.57;;
57225;SDS011;43082;43.568;22.256;2023-04-03T01:11:25;11.23;;;5.07;;
57225;SDS011;43082;43.568;22.256;2023-04-03T01:13:51;10.90;;;6.38;;
57225;SDS011;43082;43.568;22.256;2023-04-03T01:16:17;14.30;;;9.05;;
57225;SDS011;43082;43.568;22.256;2023-04-03T01:18:42;14.63;;;9.88;;
57225;SDS011;43082;43.568;22.256;2023-04-03T01:26:24;14.95;;;8.80;;
57225;SDS011;43082;43.568;22.256;2023-04-03T01:28:50;13.05;;;7.60;;
57225;SDS011;43082;43.568;22.256;2023-04-03T01:31:20;9.07;;;4.35;;
57225;SDS011;43082;43.568;22.256;2023-04-03T01:33:50;13.50;;;6.20;;
57225;SDS011;43082;43.568;22.256;2023-04-03T01:36:20;9.88;;;4.45;;
57225;SDS011;43082;43.568;22.256;2023-04-03T01:38:51;14.05;;;7.53;;
57225;SDS011;43082;43.568;22.256;2023-04-03T01:41:16;12.73;;;7.07;;
57225;SDS011;43082;43.568;22.256;2023-04-03T01:43:42;8.00;;;4.40;;
57225;SDS011;43082;43.568;22.256;2023-04-03T01:46:07;9.63;;;4.90;;
57225;SDS011;43082;43.568;22.256;2023-04-03T01:48:33;9.10;;;4.35;;
57225;SDS011;43082;43.568;22.256;2023-04-03T01:50:58;9.95;;;4.57;;
57225;SDS011;43082;43.568;22.256;2023-04-03T01:53:24;10.13;;;5.10;;
57225;SDS011;43082;43.568;22.256;2023-04-03T01:55:49;10.05;;;5.13;;
57225;SDS011;43082;43.568;22.256;2023-04-03T01:58:15;11.23;;;5.47;;
57225;SDS011;43082;43.568;22.256;2023-04-03T02:00:40;9.48;;;5.03;;
57225;SDS011;43082;43.568;22.256;2023-04-03T02:03:06;14.15;;;7.53;;
57225;SDS011;43082;43.568;22.256;2023-04-03T02:05:31;12.27;;;6.47;;
57225;SDS011;43082;43.568;22.256;2023-04-03T02:07:57;13.40;;;7.43;;
57225;SDS011;43082;43.568;22.256;2023-04-03T02:10:22;19.65;;;10.18;;
57225;SDS011;43082;43.568;22.256;2023-04-03T02:12:48;23.20;;;12.48;;
57225;SDS011;43082;43.568;22.256;2023-04-03T02:15:13;16.35;;;7.47;;
57225;SDS011;43082;43.568;22.256;2023-04-03T02:17:39;9.50;;;4.93;;
57225;SDS011;43082;43.568;22.256;2023-04-03T02:20:04;6.03;;;2.20;;
57225;SDS011;43082;43.568;22.256;2023-04-03T02:22:30;23.23;;;13.73;;
57225;SDS011;43082;43.568;22.256;2023-04-03T02:24:56;21.75;;;12.20;;
57225;SDS011;43082;43.568;22.256;2023-04-03T02:27:21;12.02;;;7.28;;
57225;SDS011;43082;43.568;22.256;2023-04-03T02:29:46;14.52;;;7.43;;
57225;SDS011;43082;43.568;22.256;2023-04-03T02:32:12;18.15;;;9.45;;
57225;SDS011;43082;43.568;22.256;2023-04-03T02:34:37;15.07;;;8.40;;
57225;SDS011;43082;43.568;22.256;2023-04-03T02:37:03;13.43;;;7.85;;
57225;SDS011;43082;43.568;22.256;2023-04-03T02:39:28;13.57;;;7.78;;
57225;SDS011;43082;43.568;22.256;2023-04-03T02:41:54;13.70;;;8.20;;
57225;SDS011;43082;43.568;22.256;2023-04-03T02:44:19;15.65;;;9.77;;
57225;SDS011;43082;43.568;22.256;2023-04-03T02:46:44;15.23;;;9.80;;
57225;SDS011;43082;43.568;22.256;2023-04-03T02:49:10;20.33;;;13.57;;
57225;SDS011;43082;43.568;22.256;2023-04-03T02:51:35;15.63;;;9.73;;
57225;SDS011;43082;43.568;22.256;2023-04-03T02:54:01;14.45;;;7.30;;
57225;SDS011;43082;43.568;22.256;2023-04-03T02:56:26;14.00;;;6.30;;
57225;SDS011;43082;43.568;22.256;2023-04-03T02:58:52;14.05;;;8.15;;
57225;SDS011;43082;43.568;22.256;2023-04-03T03:01:17;16.80;;;9.27;;
57225;SDS011;43082;43.568;22.256;2023-04-03T03:03:43;13.50;;;8.27;;
57225;SDS011;43082;43.568;22.256;2023-04-03T03:06:09;11.48;;;6.65;;
57225;SDS011;43082;43.568;22.256;2023-04-03T03:08:37;11.77;;;7.20;;
57225;SDS011;43082;43.568;22.256;2023-04-03T03:11:03;13.40;;;7.32;;
57225;SDS011;43082;43.568;22.256;2023-04-03T03:13:29;10.98;;;5.97;;
57225;SDS011;43082;43.568;22.256;2023-04-03T03:15:55;13.57;;;5.88;;
57225;SDS011;43082;43.568;22.256;2023-04-03T03:18:20;11.68;;;6.30;;
57225;SDS011;43082;43.568;22.256;2023-04-03T03:20:46;11.23;;;6.00;;
57225;SDS011;43082;43.568;22.256;2023-04-03T03:23:12;10.85;;;5.90;;
57225;SDS011;43082;43.568;22.256;2023-04-03T03:25:38;12.38;;;6.57;;
57225;SDS011;43082;43.568;22.256;2023-04-03T03:28:06;11.05;;;6.70;;
57225;SDS011;43082;43.568;22.256;2023-04-03T03:30:32;10.15;;;6.05;;
57225;SDS011;43082;43.568;22.256;2023-04-03T03:32:58;11.48;;;6.38;;
57225;SDS011;43082;43.568;22.256;2023-04-03T03:35:23;13.40;;;7.20;;
57225;SDS011;43082;43.568;22.256;2023-04-03T03:37:49;12.70;;;7.22;;
57225;SDS011;43082;43.568;22.256;2023-04-03T03:40:14;10.38;;;4.63;;
57225;SDS011;43082;43.568;22.256;2023-04-03T03:42:40;11.18;;;5.43;;
57225;SDS011;43082;43.568;22.256;2023-04-03T03:45:05;10.00;;;5.25;;
57225;SDS011;43082;43.568;22.256;2023-04-03T03:47:31;9.27;;;4.63;;
57225;SDS011;43082;43.568;22.256;2023-04-03T03:49:57;11.13;;;6.45;;
57225;SDS011;43082;43.568;22.256;2023-04-03T03:52:22;14.50;;;8.13;;
57225;SDS011;43082;43.568;22.256;2023-04-03T03:54:48;16.40;;;9.23;;
57225;SDS011;43082;43.568;22.256;2023-04-03T03:57:13;15.68;;;8.02;;
57225;SDS011;43082;43.568;22.256;2023-04-03T03:59:39;16.38;;;9.65;;
57225;SDS011;43082;43.568;22.256;2023-04-03T04:02:06;16.25;;;9.85;;
57225;SDS011;43082;43.568;22.256;2023-04-03T04:04:32;13.95;;;9.13;;
57225;SDS011;43082;43.568;22.256;2023-04-03T04:06:57;18.02;;;11.32;;
57225;SDS011;43082;43.568;22.256;2023-04-03T04:09:23;14.52;;;8.80;;
57225;SDS011;43082;43.568;22.256;2023-04-03T04:11:48;13.15;;;7.95;;
57225;SDS011;43082;43.568;22.256;2023-04-03T04:14:13;12.40;;;7.88;;
57225;SDS011;43082;43.568;22.256;2023-04-03T04:16:39;10.05;;;5.82;;
57225;SDS011;43082;43.568;22.256;2023-04-03T04:19:04;9.55;;;5.45;;
57225;SDS011;43082;43.568;22.256;2023-04-03T04:21:30;10.73;;;7.03;;
57225;SDS011;43082;43.568;22.256;2023-04-03T04:23:55;11.52;;;7.53;;
57225;SDS011;43082;43.568;22.256;2023-04-03T04:26:21;13.68;;;8.05;;
57225;SDS011;43082;43.568;22.256;2023-04-03T04:28:46;14.50;;;10.02;;
57225;SDS011;43082;43.568;22.256;2023-04-03T04:31:12;21.77;;;12.63;;
57225;SDS011;43082;43.568;22.256;2023-04-03T04:33:37;14.60;;;9.77;;
57225;SDS011;43082;43.568;22.256;2023-04-03T04:36:02;23.80;;;14.20;;
57225;SDS011;43082;43.568;22.256;2023-04-03T04:38:28;23.73;;;16.05;;
57225;SDS011;43082;43.568;22.256;2023-04-03T04:40:53;34.58;;;24.73;;
57225;SDS011;43082;43.568;22.256;2023-04-03T04:43:19;41.70;;;28.92;;
57225;SDS011;43082;43.568;22.256;2023-04-03T04:45:44;37.55;;;27.40;;
57225;SDS011;43082;43.568;22.256;2023-04-03T04:48:10;36.33;;;25.27;;
57225;SDS011;43082;43.568;22.256;2023-04-03T04:50:35;41.45;;;27.73;;
57225;SDS011;43082;43.568;22.256;2023-04-03T04:53:00;27.75;;;20.75;;
57225;SDS011;43082;43.568;22.256;2023-04-03T04:55:26;32.90;;;22.73;;
57225;SDS011;43082;43.568;22.256;2023-04-03T04:57:51;22.45;;;16.30;;
57225;SDS011;43082;43.568;22.256;2023-04-03T05:00:17;23.27;;;14.98;;
57225;SDS011;43082;43.568;22.256;2023-04-03T05:02:42;26.05;;;17.58;;
57225;SDS011;43082;43.568;22.256;2023-04-03T05:05:08;29.65;;;19.58;;
57225;SDS011;43082;43.568;22.256;2023-04-03T05:07:34;30.67;;;20.10;;
57225;SDS011;43082;43.568;22.256;2023-04-03T05:10:00;32.22;;;20.33;;
57225;SDS011;43082;43.568;22.256;2023-04-03T05:12:27;34.70;;;23.33;;
57225;SDS011;43082;43.568;22.256;2023-04-03T05:14:53;28.52;;;19.45;;
57225;SDS011;43082;43.568;22.256;2023-04-03T05:17:18;24.10;;;17.05;;
57225;SDS011;43082;43.568;22.256;2023-04-03T05:19:43;29.52;;;20.02;;
57225;SDS011;43082;43.568;22.256;2023-04-03T05:22:09;31.92;;;22.00;;
57225;SDS011;43082;43.568;22.256;2023-04-03T05:24:35;31.13;;;19.92;;
57225;SDS011;43082;43.568;22.256;2023-04-03T05:27:00;18.75;;;13.85;;
57225;SDS011;43082;43.568;22.256;2023-04-03T05:29:25;29.35;;;17.77;;
57225;SDS011;43082;43.568;22.256;2023-04-03T05:31:51;21.75;;;15.38;;
57225;SDS011;43082;43.568;22.256;2023-04-03T05:34:16;22.55;;;14.75;;
57225;SDS011;43082;43.568;22.256;2023-04-03T05:36:42;22.40;;;14.88;;
57225;SDS011;43082;43.568;22.256;2023-04-03T05:39:08;36.72;;;16.17;;
57225;SDS011;43082;43.568;22.256;2023-04-03T05:41:33;30.42;;;21.48;;
57225;SDS011;43082;43.568;22.256;2023-04-03T05:43:58;27.25;;;19.50;;
57225;SDS011;43082;43.568;22.256;2023-04-03T05:46:24;28.67;;;17.90;;
57225;SDS011;43082;43.568;22.256;2023-04-03T05:48:50;33.78;;;24.15;;
57225;SDS011;43082;43.568;22.256;2023-04-03T05:51:21;25.52;;;19.33;;
57225;SDS011;43082;43.568;22.256;2023-04-03T05:53:47;41.13;;;28.13;;
57225;SDS011;43082;43.568;22.256;2023-04-03T05:56:14;45.90;;;31.80;;
57225;SDS011;43082;43.568;22.256;2023-04-03T05:58:39;46.03;;;33.10;;
57225;SDS011;43082;43.568;22.256;2023-04-03T06:01:04;56.45;;;35.58;;
57225;SDS011;43082;43.568;22.256;2023-04-03T06:03:30;31.08;;;20.85;;
57225;SDS011;43082;43.568;22.256;2023-04-03T06:05:56;71.65;;;54.88;;
57225;SDS011;43082;43.568;22.256;2023-04-03T06:08:22;36.08;;;26.33;;
57225;SDS011;43082;43.568;22.256;2023-04-03T06:10:48;46.97;;;32.15;;
57225;SDS011;43082;43.568;22.256;2023-04-03T06:13:15;35.53;;;26.42;;
57225;SDS011;43082;43.568;22.256;2023-04-03T06:15:40;29.95;;;19.88;;
57225;SDS011;43082;43.568;22.256;2023-04-03T06:18:06;28.17;;;19.83;;
57225;SDS011;43082;43.568;22.256;2023-04-03T06:20:31;25.45;;;19.17;;
57225;SDS011;43082;43.568;22.256;2023-04-03T06:22:57;23.15;;;15.18;;
57225;SDS011;43082;43.568;22.256;2023-04-03T06:25:22;27.25;;;17.63;;
57225;SDS011;43082;43.568;22.256;2023-04-03T06:27:48;24.33;;;15.52;;
57225;SDS011;43082;43.568;22.256;2023-04-03T06:30:13;27.67;;;18.05;;
57225;SDS011;43082;43.568;22.256;2023-04-03T06:32:39;26.40;;;18.92;;
57225;SDS011;43082;43.568;22.256;2023-04-03T06:35:04;29.63;;;20.92;;
57225;SDS011;43082;43.568;22.256;2023-04-03T06:37:30;25.55;;;18.45;;
57225;SDS011;43082;43.568;22.256;2023-04-03T06:39:57;26.15;;;18.02;;
57225;SDS011;43082;43.568;22.256;2023-04-03T06:42:23;31.45;;;20.38;;
57225;SDS011;43082;43.568;22.256;2023-04-03T06:44:48;26.67;;;18.88;;
57225;SDS011;43082;43.568;22.256;2023-04-03T06:47:14;25.20;;;17.73;;
57225;SDS011;43082;43.568;22.256;2023-04-03T06:49:41;24.42;;;16.48;;
57225;SDS011;43082;43.568;22.256;2023-04-03T06:52:07;26.45;;;16.08;;
57225;SDS011;43082;43.568;22.256;2023-04-03T06:54:33;22.17;;;14.50;;
57225;SDS011;43082;43.568;22.256;2023-04-03T06:56:58;24.52;;;15.70;;
57225;SDS011;43082;43.568;22.256;2023-04-03T06:59:24;23.90;;;16.55;;
57225;SDS011;43082;43.568;22.256;2023-04-03T07:01:49;23.10;;;16.75;;
57225;SDS011;43082;43.568;22.256;2023-04-03T07:04:15;20.30;;;13.90;;
57225;SDS011;43082;43.568;22.256;2023-04-03T07:06:40;20.30;;;12.77;;
57225;SDS011;43082;43.568;22.256;2023-04-03T07:09:07;17.33;;;9.98;;
57225;SDS011;43082;43.568;22.256;2023-04-03T07:11:33;16.13;;;10.30;;
57225;SDS011;43082;43.568;22.256;2023-04-03T07:13:59;16.35;;;10.18;;
57225;SDS011;43082;43.568;22.256;2023-04-03T07:16:25;13.25;;;8.93;;
57225;SDS011;43082;43.568;22.256;2023-04-03T07:18:50;12.70;;;8.63;;
57225;SDS011;43082;43.568;22.256;2023-04-03T07:21:16;11.75;;;8.00;;
57225;SDS011;43082;43.568;22.256;2023-04-03T07:23:41;14.40;;;8.35;;
57225;SDS011;43082;43.568;22.256;2023-04-03T07:26:07;19.08;;;13.30;;
57225;SDS011;43082;43.568;22.256;2023-04-03T07:28:33;13.85;;;9.65;;
57225;SDS011;43082;43.568;22.256;2023-04-03T07:31:09;15.27;;;10.70;;
57225;SDS011;43082;43.568;22.256;2023-04-03T07:33:38;18.42;;;11.60;;
57225;SDS011;43082;43.568;22.256;2023-04-03T07:36:04;16.23;;;12.23;;
57225;SDS011;43082;43.568;22.256;2023-04-03T07:38:31;17.15;;;12.30;;
57225;SDS011;43082;43.568;22.256;2023-04-03T07:40:57;17.00;;;12.60;;
57225;SDS011;43082;43.568;22.256;2023-04-03T07:43:23;20.08;;;13.43;;
57225;SDS011;43082;43.568;22.256;2023-04-03T07:45:50;16.67;;;12.48;;
57225;SDS011;43082;43.568;22.256;2023-04-03T07:48:17;16.35;;;11.60;;
57225;SDS011;43082;43.568;22.256;2023-04-03T07:50:49;14.63;;;11.00;;
57225;SDS011;43082;43.568;22.256;2023-04-03T07:53:14;14.93;;;10.35;;
57225;SDS011;43082;43.568;22.256;2023-04-03T07:55:40;14.05;;;10.32;;
57225;SDS011;43082;43.568;22.256;2023-04-03T07:58:09;14.05;;;9.77;;
57225;SDS011;43082;43.568;22.256;2023-04-03T08:00:36;12.95;;;7.72;;
57225;SDS011;43082;43.568;22.256;2023-04-03T08:03:01;12.70;;;8.98;;
57225;SDS011;43082;43.568;22.256;2023-04-03T08:05:27;13.82;;;8.90;;
57225;SDS011;43082;43.568;22.256;2023-04-03T08:07:52;11.50;;;7.38;;
57225;SDS011;43082;43.568;22.256;2023-04-03T08:10:18;8.68;;;5.75;;
57225;SDS011;43082;43.568;22.256;2023-04-03T08:12:45;9.73;;;5.65;;
57225;SDS011;43082;43.568;22.256;2023-04-03T08:15:11;8.25;;;4.00;;
57225;SDS011;43082;43.568;22.256;2023-04-03T08:17:37;6.72;;;3.60;;
57225;SDS011;43082;43.568;22.256;2023-04-03T08:20:03;9.77;;;4.82;;
57225;SDS011;43082;43.568;22.256;2023-04-03T08:22:29;6.38;;;3.30;;
57225;SDS011;43082;43.568;22.256;2023-04-03T08:24:55;7.78;;;4.30;;
57225;SDS011;43082;43.568;22.256;2023-04-03T08:27:21;7.65;;;4.18;;
57225;SDS011;43082;43.568;22.256;2023-04-03T08:29:46;13.77;;;9.43;;
57225;SDS011;43082;43.568;22.256;2023-04-03T08:32:12;6.63;;;3.17;;
57225;SDS011;43082;43.568;22.256;2023-04-03T08:34:37;10.20;;;5.50;;
57225;SDS011;43082;43.568;22.256;2023-04-03T08:37:04;5.82;;;2.40;;
57225;SDS011;43082;43.568;22.256;2023-04-03T08:39:30;5.35;;;2.65;;
57225;SDS011;43082;43.568;22.256;2023-04-03T08:41:57;5.28;;;2.58;;
57225;SDS011;43082;43.568;22.256;2023-04-03T08:50:07;9.80;;;2.30;;
57225;SDS011;43082;43.568;22.256;2023-04-03T08:52:50;4.90;;;2.25;;
57225;SDS011;43082;43.568;22.256;2023-04-03T08:58:12;5.55;;;2.20;;
57225;SDS011;43082;43.568;22.256;2023-04-03T09:03:17;4.65;;;2.20;;
57225;SDS011;43082;43.568;22.256;2023-04-03T09:08:29;5.55;;;2.30;;
57225;SDS011;43082;43.568;22.256;2023-04-03T09:10:59;7.85;;;2.40;;
57225;SDS011;43082;43.568;22.256;2023-04-03T09:16:47;5.50;;;2.83;;
57225;SDS011;43082;43.568;22.256;2023-04-03T09:21:58;7.28;;;2.53;;
57225;SDS011;43082;43.568;22.256;2023-04-03T09:24:26;7.20;;;2.90;;
57225;SDS011;43082;43.568;22.256;2023-04-03T09:26:53;6.25;;;2.60;;
57225;SDS011;43082;43.568;22.256;2023-04-03T09:29:24;8.65;;;2.42;;
57225;SDS011;43082;43.568;22.256;2023-04-03T09:31:54;5.15;;;2.35;;
57225;SDS011;43082;43.568;22.256;2023-04-03T09:34:22;7.07;;;2.13;;
57225;SDS011;43082;43.568;22.256;2023-04-03T09:36:52;5.45;;;2.50;;
57225;SDS011;43082;43.568;22.256;2023-04-03T09:39:19;5.80;;;2.38;;
57225;SDS011;43082;43.568;22.256;2023-04-03T09:42:00;7.15;;;2.60;;
57225;SDS011;43082;43.568;22.256;2023-04-03T09:44:32;7.13;;;2.80;;
57225;SDS011;43082;43.568;22.256;2023-04-03T09:52:40;5.40;;;2.20;;
57225;SDS011;43082;43.568;22.256;2023-04-03T09:55:08;9.32;;;2.28;;
57225;SDS011;43082;43.568;22.256;2023-04-03T09:57:39;5.80;;;2.33;;
57225;SDS011;43082;43.568;22.256;2023-04-03T10:00:05;8.30;;;2.78;;
57225;SDS011;43082;43.568;22.256;2023-04-03T10:05:01;5.55;;;2.10;;
57225;SDS011;43082;43.568;22.256;2023-04-03T10:07:29;6.20;;;2.00;;
57225;SDS011;43082;43.568;22.256;2023-04-03T10:10:01;4.97;;;2.00;;
57225;SDS011;43082;43.568;22.256;2023-04-03T10:12:42;5.60;;;2.35;;
57225;SDS011;43082;43.568;22.256;2023-04-03T10:15:12;4.85;;;2.38;;
57225;SDS011;43082;43.568;22.256;2023-04-03T10:23:02;6.63;;;2.47;;
57225;SDS011;43082;43.568;22.256;2023-04-03T10:25:42;6.80;;;2.85;;
57225;SDS011;43082;43.568;22.256;2023-04-03T10:28:20;6.53;;;2.50;;
57225;SDS011;43082;43.568;22.256;2023-04-03T10:39:00;7.55;;;2.80;;
57225;SDS011;43082;43.568;22.256;2023-04-03T10:54:38;8.30;;;2.60;;
57225;SDS011;43082;43.568;22.256;2023-04-03T10:57:06;8.95;;;2.72;;
57225;SDS011;43082;43.568;22.256;2023-04-03T10:59:38;6.50;;;2.60;;
57225;SDS011;43082;43.568;22.256;2023-04-03T11:05:04;6.05;;;2.95;;
57225;SDS011;43082;43.568;22.256;2023-04-03T11:07:42;10.88;;;3.58;;
57225;SDS011;43082;43.568;22.256;2023-04-03T11:10:13;7.95;;;3.40;;
57225;SDS011;43082;43.568;22.256;2023-04-03T11:12:43;9.13;;;2.72;;
57225;SDS011;43082;43.568;22.256;2023-04-03T11:15:12;7.53;;;2.80;;
57225;SDS011;43082;43.568;22.256;2023-04-03T11:17:41;6.53;;;3.40;;
57225;SDS011;43082;43.568;22.256;2023-04-03T11:20:16;7.82;;;2.75;;
57225;SDS011;43082;43.568;22.256;2023-04-03T11:25:54;7.38;;;2.72;;
57225;SDS011;43082;43.568;22.256;2023-04-03T11:28:20;8.07;;;3.00;;
57225;SDS011;43082;43.568;22.256;2023-04-03T11:30:47;6.57;;;2.90;;
57225;SDS011;43082;43.568;22.256;2023-04-03T11:36:29;5.88;;;2.60;;
57225;SDS011;43082;43.568;22.256;2023-04-03T11:38:55;7.82;;;2.20;;
57225;SDS011;43082;43.568;22.256;2023-04-03T11:41:29;6.90;;;2.50;;
57225;SDS011;43082;43.568;22.256;2023-04-03T11:46:22;6.15;;;2.80;;
57225;SDS011;43082;43.568;22.256;2023-04-03T12:05:49;6.85;;;2.83;;
57225;SDS011;43082;43.568;22.256;2023-04-03T12:13:33;6.57;;;2.90;;
57225;SDS011;43082;43.568;22.256;2023-04-03T12:16:20;6.68;;;2.90;;
57225;SDS011;43082;43.568;22.256;2023-04-03T12:40:23;9.57;;;4.90;;
57225;SDS011;43082;43.568;22.256;2023-04-03T12:51:55;10.57;;;4.93;;
57225;SDS011;43082;43.568;22.256;2023-04-03T12:54:15;11.52;;;5.95;;
57225;SDS011;43082;43.568;22.256;2023-04-03T12:56:42;14.05;;;7.43;;
57225;SDS011;43082;43.568;22.256;2023-04-03T13:01:53;10.80;;;6.88;;
57225;SDS011;43082;43.568;22.256;2023-04-03T13:04:20;8.07;;;4.72;;
57225;SDS011;43082;43.568;22.256;2023-04-03T13:06:45;13.15;;;6.65;;
57225;SDS011;43082;43.568;22.256;2023-04-03T13:09:24;15.55;;;8.25;;
57225;SDS011;43082;43.568;22.256;2023-04-03T13:11:57;12.93;;;8.43;;
57225;SDS011;43082;43.568;22.256;2023-04-03T13:14:25;18.48;;;12.02;;
57225;SDS011;43082;43.568;22.256;2023-04-03T13:17:03;10.20;;;6.43;;
57225;SDS011;43082;43.568;22.256;2023-04-03T13:19:29;12.38;;;7.05;;
57225;SDS011;43082;43.568;22.256;2023-04-03T13:21:59;23.27;;;16.17;;
57225;SDS011;43082;43.568;22.256;2023-04-03T13:24:28;13.45;;;8.63;;
57225;SDS011;43082;43.568;22.256;2023-04-03T13:26:55;16.67;;;12.45;;
57225;SDS011;43082;43.568;22.256;2023-04-03T13:29:25;16.98;;;12.90;;
57225;SDS011;43082;43.568;22.256;2023-04-03T13:31:53;15.45;;;8.75;;
57225;SDS011;43082;43.568;22.256;2023-04-03T13:34:20;14.77;;;9.32;;
57225;SDS011;43082;43.568;22.256;2023-04-03T13:41:43;13.38;;;9.48;;
57225;SDS011;43082;43.568;22.256;2023-04-03T13:46:51;15.93;;;10.15;;
57225;SDS011;43082;43.568;22.256;2023-04-03T13:49:22;21.90;;;15.15;;
57225;SDS011;43082;43.568;22.256;2023-04-03T13:51:54;17.05;;;13.15;;
57225;SDS011;43082;43.568;22.256;2023-04-03T13:54:22;13.68;;;9.63;;
57225;SDS011;43082;43.568;22.256;2023-04-03T13:56:53;15.27;;;11.35;;
57225;SDS011;43082;43.568;22.256;2023-04-03T13:59:21;21.50;;;13.52;;
57225;SDS011;43082;43.568;22.256;2023-04-03T14:01:51;20.95;;;15.82;;
57225;SDS011;43082;43.568;22.256;2023-04-03T14:04:33;15.52;;;10.23;;
57225;SDS011;43082;43.568;22.256;2023-04-03T14:06:58;24.23;;;18.33;;
57225;SDS011;43082;43.568;22.256;2023-04-03T14:09:25;20.92;;;15.43;;
57225;SDS011;43082;43.568;22.256;2023-04-03T14:11:53;22.98;;;16.85;;
57225;SDS011;43082;43.568;22.256;2023-04-03T14:14:31;14.23;;;10.57;;
57225;SDS011;43082;43.568;22.256;2023-04-03T14:16:59;17.92;;;12.63;;
57225;SDS011;43082;43.568;22.256;2023-04-03T14:19:30;20.38;;;15.13;;
57225;SDS011;43082;43.568;22.256;2023-04-03T14:21:57;20.88;;;16.15;;
57225;SDS011;43082;43.568;22.256;2023-04-03T14:24:24;22.38;;;16.90;;
57225;SDS011;43082;43.568;22.256;2023-04-03T14:26:50;18.95;;;14.18;;
57225;SDS011;43082;43.568;22.256;2023-04-03T14:29:17;16.42;;;13.02;;
57225;SDS011;43082;43.568;22.256;2023-04-03T14:31:43;18.75;;;14.85;;
57225;SDS011;43082;43.568;22.256;2023-04-03T14:34:14;17.33;;;14.30;;
57225;SDS011;43082;43.568;22.256;2023-04-03T14:36:41;22.73;;;14.45;;
57225;SDS011;43082;43.568;22.256;2023-04-03T14:39:08;29.15;;;20.50;;
57225;SDS011;43082;43.568;22.256;2023-04-03T14:41:36;19.25;;;14.48;;
57225;SDS011;43082;43.568;22.256;2023-04-03T14:44:02;19.17;;;14.77;;
57225;SDS011;43082;43.568;22.256;2023-04-03T14:46:32;29.65;;;24.20;;
57225;SDS011;43082;43.568;22.256;2023-04-03T14:49:00;20.23;;;15.82;;
57225;SDS011;43082;43.568;22.256;2023-04-03T14:51:26;22.35;;;16.55;;
57225;SDS011;43082;43.568;22.256;2023-04-03T14:53:51;19.23;;;14.40;;
57225;SDS011;43082;43.568;22.256;2023-04-03T14:58:46;25.85;;;20.98;;
57225;SDS011;43082;43.568;22.256;2023-04-03T15:01:15;24.38;;;18.08;;
57225;SDS011;43082;43.568;22.256;2023-04-03T15:03:40;18.65;;;14.50;;
57225;SDS011;43082;43.568;22.256;2023-04-03T15:06:08;16.05;;;11.93;;
57225;SDS011;43082;43.568;22.256;2023-04-03T15:08:34;18.73;;;15.25;;
57225;SDS011;43082;43.568;22.256;2023-04-03T15:11:00;17.35;;;13.57;;
57225;SDS011;43082;43.568;22.256;2023-04-03T15:13:26;22.45;;;14.45;;
57225;SDS011;43082;43.568;22.256;2023-04-03T15:15:51;20.63;;;15.82;;
57225;SDS011;43082;43.568;22.256;2023-04-03T15:18:24;16.00;;;10.60;;
57225;SDS011;43082;43.568;22.256;2023-04-03T15:20:51;25.50;;;20.48;;
57225;SDS011;43082;43.568;22.256;2023-04-03T15:23:17;29.67;;;24.33;;
57225;SDS011;43082;43.568;22.256;2023-04-03T15:25:44;24.50;;;17.02;;
57225;SDS011;43082;43.568;22.256;2023-04-03T15:28:15;24.48;;;18.35;;
57225;SDS011;43082;43.568;22.256;2023-04-03T15:30:44;23.58;;;17.52;;
57225;SDS011;43082;43.568;22.256;2023-04-03T15:33:09;17.52;;;12.95;;
57225;SDS011;43082;43.568;22.256;2023-04-03T15:35:35;17.08;;;14.15;;
57225;SDS011;43082;43.568;22.256;2023-04-03T15:38:00;16.83;;;13.63;;
57225;SDS011;43082;43.568;22.256;2023-04-03T15:40:26;15.75;;;12.40;;
57225;SDS011;43082;43.568;22.256;2023-04-03T15:42:51;15.70;;;12.13;;
57225;SDS011;43082;43.568;22.256;2023-04-03T15:45:16;18.55;;;14.18;;
57225;SDS011;43082;43.568;22.256;2023-04-03T15:47:42;15.93;;;12.35;;
57225;SDS011;43082;43.568;22.256;2023-04-03T15:50:07;14.70;;;11.23;;
57225;SDS011;43082;43.568;22.256;2023-04-03T15:52:33;18.35;;;14.15;;
57225;SDS011;43082;43.568;22.256;2023-04-03T15:54:59;16.35;;;12.88;;
57225;SDS011;43082;43.568;22.256;2023-04-03T15:57:24;16.25;;;11.43;;
57225;SDS011;43082;43.568;22.256;2023-04-03T15:59:51;20.55;;;15.20;;
57225;SDS011;43082;43.568;22.256;2023-04-03T16:02:17;15.88;;;11.50;;
57225;SDS011;43082;43.568;22.256;2023-04-03T16:04:43;20.67;;;16.17;;
57225;SDS011;43082;43.568;22.256;2023-04-03T16:07:08;17.90;;;14.10;;
57225;SDS011;43082;43.568;22.256;2023-04-03T16:09:34;17.75;;;14.43;;
57225;SDS011;43082;43.568;22.256;2023-04-03T16:12:00;14.82;;;11.75;;
57225;SDS011;43082;43.568;22.256;2023-04-03T16:14:26;16.55;;;13.25;;
57225;SDS011;43082;43.568;22.256;2023-04-03T16:16:53;15.52;;;12.38;;
57225;SDS011;43082;43.568;22.256;2023-04-03T16:19:18;14.98;;;11.95;;
57225;SDS011;43082;43.568;22.256;2023-04-03T16:21:43;15.75;;;11.13;;
57225;SDS011;43082;43.568;22.256;2023-04-03T16:24:09;18.88;;;14.05;;
57225;SDS011;43082;43.568;22.256;2023-04-03T16:26:34;17.38;;;12.70;;
57225;SDS011;43082;43.568;22.256;2023-04-03T16:29:00;21.70;;;12.43;;
57225;SDS011;43082;43.568;22.256;2023-04-03T16:31:25;21.23;;;16.55;;
57225;SDS011;43082;43.568;22.256;2023-04-03T16:33:51;18.15;;;13.18;;
57225;SDS011;43082;43.568;22.256;2023-04-03T16:36:16;17.35;;;11.90;;